sensor_id;sensor_type;location;lat;lon;timestamp;temperature;humidity
67748;HTU21D;54543;50.712;6.070;2022-12-18T00:01:58;-5.83;79.56
67748;HTU21D;54543;50.712;6.070;2022-12-18T00:04:25;-5.83;79.41
67748;HTU21D;54543;50.712;6.070;2022-12-18T00:06:51;-5.85;79.26
67748;HTU21D;54543;50.712;6.070;2022-12-18T00:09:17;-5.84;79.33
67748;HTU21D;54543;50.712;6.070;2022-12-18T00:11:43;-5.85;78.94
67748;HTU21D;54543;50.712;6.070;2022-12-18T00:14:10;-5.85;78.75
67748;HTU21D;54543;50.712;6.070;2022-12-18T00:16:36;-5.84;78.83
67748;HTU21D;54543;50.712;6.070;2022-12-18T00:19:03;-5.86;78.82
67748;HTU21D;54543;50.712;6.070;2022-12-18T00:21:30;-5.87;78.56
67748;HTU21D;54543;50.712;6.070;2022-12-18T00:23:56;-5.87;77.74
67748;HTU21D;54543;50.712;6.070;2022-12-18T00:26:27;-5.85;77.53
67748;HTU21D;54543;50.712;6.070;2022-12-18T00:28:54;-5.81;76.39
67748;HTU21D;54543;50.712;6.070;2022-12-18T00:31:23;-5.76;76.52
67748;HTU21D;54543;50.712;6.070;2022-12-18T00:33:49;-5.72;75.74
67748;HTU21D;54543;50.712;6.070;2022-12-18T00:36:21;-5.67;75.85
67748;HTU21D;54543;50.712;6.070;2022-12-18T00:38:47;-5.65;74.67
67748;HTU21D;54543;50.712;6.070;2022-12-18T00:41:15;-5.60;74.50
67748;HTU21D;54543;50.712;6.070;2022-12-18T00:44:05;-5.56;74.45
67748;HTU21D;54543;50.712;6.070;2022-12-18T00:46:31;-5.52;75.12
67748;HTU21D;54543;50.712;6.070;2022-12-18T00:48:57;-5.50;75.35
67748;HTU21D;54543;50.712;6.070;2022-12-18T00:51:23;-5.50;75.67
67748;HTU21D;54543;50.712;6.070;2022-12-18T00:53:49;-5.52;75.12
67748;HTU21D;54543;50.712;6.070;2022-12-18T00:56:15;-5.54;74.18
67748;HTU21D;54543;50.712;6.070;2022-12-18T00:58:40;-5.54;74.24
67748;HTU21D;54543;50.712;6.070;2022-12-18T01:01:06;-5.53;72.88
67748;HTU21D;54543;50.712;6.070;2022-12-18T01:03:32;-5.47;74.14
67748;HTU21D;54543;50.712;6.070;2022-12-18T01:05:58;-5.47;73.50
67748;HTU21D;54543;50.712;6.070;2022-12-18T01:08:24;-5.45;73.72
67748;HTU21D;54543;50.712;6.070;2022-12-18T01:10:49;-5.42;74.12
67748;HTU21D;54543;50.712;6.070;2022-12-18T01:13:15;-5.42;74.18
67748;HTU21D;54543;50.712;6.070;2022-12-18T01:15:48;-5.44;73.44
67748;HTU21D;54543;50.712;6.070;2022-12-18T01:18:13;-5.43;73.46
67748;HTU21D;54543;50.712;6.070;2022-12-18T01:20:39;-5.44;72.60
67748;HTU21D;54543;50.712;6.070;2022-12-18T01:23:04;-5.45;71.39
67748;HTU21D;54543;50.712;6.070;2022-12-18T01:25:30;-5.45;71.94
67748;HTU21D;54543;50.712;6.070;2022-12-18T01:27:55;-5.42;70.74
67748;HTU21D;54543;50.712;6.070;2022-12-18T01:30:21;-5.39;71.74
67748;HTU21D;54543;50.712;6.070;2022-12-18T01:32:46;-5.34;69.91
67748;HTU21D;54543;50.712;6.070;2022-12-18T01:35:12;-5.30;70.30
67748;HTU21D;54543;50.712;6.070;2022-12-18T01:37:37;-5.28;70.92
67748;HTU21D;54543;50.712;6.070;2022-12-18T01:40:03;-5.26;68.78
67748;HTU21D;54543;50.712;6.070;2022-12-18T01:42:29;-5.26;67.90
67748;HTU21D;54543;50.712;6.070;2022-12-18T01:45:04;-5.27;68.33
67748;HTU21D;54543;50.712;6.070;2022-12-18T01:47:49;-5.29;68.27
67748;HTU21D;54543;50.712;6.070;2022-12-18T01:50:27;-5.34;69.97
67748;HTU21D;54543;50.712;6.070;2022-12-18T01:52:55;-5.40;69.73
67748;HTU21D;54543;50.712;6.070;2022-12-18T01:55:24;-5.45;67.67
67748;HTU21D;54543;50.712;6.070;2022-12-18T01:57:54;-5.45;69.29
67748;HTU21D;54543;50.712;6.070;2022-12-18T02:00:22;-5.44;70.04
67748;HTU21D;54543;50.712;6.070;2022-12-18T02:02:48;-5.42;70.49
67748;HTU21D;54543;50.712;6.070;2022-12-18T02:06:13;-5.38;71.06
67748;HTU21D;54543;50.712;6.070;2022-12-18T02:19:03;-5.40;70.29
67748;HTU21D;54543;50.712;6.070;2022-12-18T02:24:29;-5.34;69.75
67748;HTU21D;54543;50.712;6.070;2022-12-18T02:27:00;-5.29;70.75
67748;HTU21D;54543;50.712;6.070;2022-12-18T02:29:49;-5.24;68.98
67748;HTU21D;54543;50.712;6.070;2022-12-18T02:32:20;-5.20;70.58
67748;HTU21D;54543;50.712;6.070;2022-12-18T02:34:48;-5.25;69.16
67748;HTU21D;54543;50.712;6.070;2022-12-18T02:37:17;-5.28;70.66
67748;HTU21D;54543;50.712;6.070;2022-12-18T02:39:46;-5.30;70.22
67748;HTU21D;54543;50.712;6.070;2022-12-18T02:42:13;-5.32;68.64
67748;HTU21D;54543;50.712;6.070;2022-12-18T02:44:44;-5.30;66.85
67748;HTU21D;54543;50.712;6.070;2022-12-18T02:47:12;-5.28;68.47
67748;HTU21D;54543;50.712;6.070;2022-12-18T02:49:56;-5.26;69.72
67748;HTU21D;54543;50.712;6.070;2022-12-18T02:52:45;-5.25;68.09
67748;HTU21D;54543;50.712;6.070;2022-12-18T02:58:10;-5.18;67.68
67748;HTU21D;54543;50.712;6.070;2022-12-18T03:03:28;-5.08;68.28
67748;HTU21D;54543;50.712;6.070;2022-12-18T03:06:13;-5.04;66.75
67748;HTU21D;54543;50.712;6.070;2022-12-18T03:08:46;-5.01;64.62
67748;HTU21D;54543;50.712;6.070;2022-12-18T03:11:14;-4.95;67.23
67748;HTU21D;54543;50.712;6.070;2022-12-18T03:13:52;-4.90;66.93
67748;HTU21D;54543;50.712;6.070;2022-12-18T03:16:24;-4.87;67.80
67748;HTU21D;54543;50.712;6.070;2022-12-18T03:19:04;-4.86;69.27
67748;HTU21D;54543;50.712;6.070;2022-12-18T03:21:58;-4.93;68.78
67748;HTU21D;54543;50.712;6.070;2022-12-18T03:24:27;-4.98;70.02
67748;HTU21D;54543;50.712;6.070;2022-12-18T03:26:58;-5.03;69.33
67748;HTU21D;54543;50.712;6.070;2022-12-18T03:29:45;-5.08;69.03
67748;HTU21D;54543;50.712;6.070;2022-12-18T03:32:15;-5.09;70.00
67748;HTU21D;54543;50.712;6.070;2022-12-18T03:34:42;-5.11;69.50
67748;HTU21D;54543;50.712;6.070;2022-12-18T03:37:09;-5.08;69.53
67748;HTU21D;54543;50.712;6.070;2022-12-18T03:39:35;-5.04;70.10
67748;HTU21D;54543;50.712;6.070;2022-12-18T03:42:07;-4.98;69.17
67748;HTU21D;54543;50.712;6.070;2022-12-18T03:44:44;-4.96;68.71
67748;HTU21D;54543;50.712;6.070;2022-12-18T03:47:19;-4.96;69.96
67748;HTU21D;54543;50.712;6.070;2022-12-18T03:52:25;-5.12;69.24
67748;HTU21D;54543;50.712;6.070;2022-12-18T03:54:52;-5.13;70.55
67748;HTU21D;54543;50.712;6.070;2022-12-18T03:57:21;-5.16;70.54
67748;HTU21D;54543;50.712;6.070;2022-12-18T03:59:50;-5.18;70.26
67748;HTU21D;54543;50.712;6.070;2022-12-18T04:02:18;-5.17;71.51
67748;HTU21D;54543;50.712;6.070;2022-12-18T04:04:45;-5.19;71.48
67748;HTU21D;54543;50.712;6.070;2022-12-18T04:07:13;-5.20;71.63
67748;HTU21D;54543;50.712;6.070;2022-12-18T04:09:41;-5.20;71.58
67748;HTU21D;54543;50.712;6.070;2022-12-18T04:12:08;-5.19;71.09
67748;HTU21D;54543;50.712;6.070;2022-12-18T04:14:34;-5.17;71.33
67748;HTU21D;54543;50.712;6.070;2022-12-18T04:17:02;-5.17;71.64
67748;HTU21D;54543;50.712;6.070;2022-12-18T04:19:28;-5.17;69.92
67748;HTU21D;54543;50.712;6.070;2022-12-18T04:21:53;-5.11;69.74
67748;HTU21D;54543;50.712;6.070;2022-12-18T04:24:19;-5.02;69.25
67748;HTU21D;54543;50.712;6.070;2022-12-18T04:26:44;-4.94;69.31
67748;HTU21D;54543;50.712;6.070;2022-12-18T04:29:10;-4.89;70.18
67748;HTU21D;54543;50.712;6.070;2022-12-18T04:31:36;-4.84;69.99
67748;HTU21D;54543;50.712;6.070;2022-12-18T04:34:01;-4.81;68.44
67748;HTU21D;54543;50.712;6.070;2022-12-18T04:36:27;-4.79;69.03
67748;HTU21D;54543;50.712;6.070;2022-12-18T04:38:53;-4.79;67.41
67748;HTU21D;54543;50.712;6.070;2022-12-18T04:41:18;-4.76;68.73
67748;HTU21D;54543;50.712;6.070;2022-12-18T04:43:43;-4.75;68.64
67748;HTU21D;54543;50.712;6.070;2022-12-18T04:46:09;-4.74;69.66
67748;HTU21D;54543;50.712;6.070;2022-12-18T04:48:37;-4.79;68.69
67748;HTU21D;54543;50.712;6.070;2022-12-18T04:51:03;-4.79;70.40
67748;HTU21D;54543;50.712;6.070;2022-12-18T04:53:29;-4.85;71.06
67748;HTU21D;54543;50.712;6.070;2022-12-18T04:56:09;-4.95;71.26
67748;HTU21D;54543;50.712;6.070;2022-12-18T04:58:36;-5.03;70.25
67748;HTU21D;54543;50.712;6.070;2022-12-18T05:01:02;-5.08;71.42
67748;HTU21D;54543;50.712;6.070;2022-12-18T05:03:28;-5.09;71.24
67748;HTU21D;54543;50.712;6.070;2022-12-18T05:05:56;-5.11;70.81
67748;HTU21D;54543;50.712;6.070;2022-12-18T05:08:22;-5.07;71.67
67748;HTU21D;54543;50.712;6.070;2022-12-18T05:10:48;-5.07;72.05
67748;HTU21D;54543;50.712;6.070;2022-12-18T05:13:14;-5.10;72.36
67748;HTU21D;54543;50.712;6.070;2022-12-18T05:15:39;-5.15;70.78
67748;HTU21D;54543;50.712;6.070;2022-12-18T05:18:05;-5.18;70.26
67748;HTU21D;54543;50.712;6.070;2022-12-18T05:20:31;-5.19;71.22
67748;HTU21D;54543;50.712;6.070;2022-12-18T05:22:57;-5.22;71.67
67748;HTU21D;54543;50.712;6.070;2022-12-18T05:25:23;-5.24;71.96
67748;HTU21D;54543;50.712;6.070;2022-12-18T05:27:49;-5.25;72.40
67748;HTU21D;54543;50.712;6.070;2022-12-18T05:30:15;-5.25;72.61
67748;HTU21D;54543;50.712;6.070;2022-12-18T05:32:41;-5.25;72.66
67748;HTU21D;54543;50.712;6.070;2022-12-18T05:35:08;-5.25;72.64
67748;HTU21D;54543;50.712;6.070;2022-12-18T05:37:33;-5.23;72.83
67748;HTU21D;54543;50.712;6.070;2022-12-18T05:39:59;-5.24;73.09
67748;HTU21D;54543;50.712;6.070;2022-12-18T05:42:25;-5.24;72.46
67748;HTU21D;54543;50.712;6.070;2022-12-18T05:44:50;-5.23;72.21
67748;HTU21D;54543;50.712;6.070;2022-12-18T05:47:15;-5.23;70.63
67748;HTU21D;54543;50.712;6.070;2022-12-18T05:49:41;-5.17;71.93
67748;HTU21D;54543;50.712;6.070;2022-12-18T05:52:07;-5.15;71.44
67748;HTU21D;54543;50.712;6.070;2022-12-18T05:54:32;-5.14;71.87
67748;HTU21D;54543;50.712;6.070;2022-12-18T05:56:58;-5.12;71.64
67748;HTU21D;54543;50.712;6.070;2022-12-18T05:59:24;-5.12;72.00
67748;HTU21D;54543;50.712;6.070;2022-12-18T06:01:49;-5.11;70.39
67748;HTU21D;54543;50.712;6.070;2022-12-18T06:04:15;-5.09;71.58
67748;HTU21D;54543;50.712;6.070;2022-12-18T06:06:40;-5.08;70.72
67748;HTU21D;54543;50.712;6.070;2022-12-18T06:09:06;-5.03;70.49
67748;HTU21D;54543;50.712;6.070;2022-12-18T06:11:34;-5.03;69.93
67748;HTU21D;54543;50.712;6.070;2022-12-18T06:14:00;-5.03;70.35
67748;HTU21D;54543;50.712;6.070;2022-12-18T06:16:27;-5.01;69.33
67748;HTU21D;54543;50.712;6.070;2022-12-18T06:18:55;-5.01;70.13
67748;HTU21D;54543;50.712;6.070;2022-12-18T06:21:21;-5.03;68.80
67748;HTU21D;54543;50.712;6.070;2022-12-18T06:23:46;-5.02;70.19
67748;HTU21D;54543;50.712;6.070;2022-12-18T06:26:13;-5.01;68.91
67748;HTU21D;54543;50.712;6.070;2022-12-18T06:28:39;-5.03;69.61
67748;HTU21D;54543;50.712;6.070;2022-12-18T06:31:05;-5.08;69.76
67748;HTU21D;54543;50.712;6.070;2022-12-18T06:33:31;-5.12;70.28
67748;HTU21D;54543;50.712;6.070;2022-12-18T06:36:01;-5.16;71.19
67748;HTU21D;54543;50.712;6.070;2022-12-18T06:38:27;-5.20;71.88
67748;HTU21D;54543;50.712;6.070;2022-12-18T06:40:53;-5.25;72.03
67748;HTU21D;54543;50.712;6.070;2022-12-18T06:43:19;-5.26;72.19
67748;HTU21D;54543;50.712;6.070;2022-12-18T06:45:44;-5.31;71.40
67748;HTU21D;54543;50.712;6.070;2022-12-18T06:48:09;-5.30;71.48
67748;HTU21D;54543;50.712;6.070;2022-12-18T06:50:35;-5.32;71.90
67748;HTU21D;54543;50.712;6.070;2022-12-18T06:53:00;-5.34;71.92
67748;HTU21D;54543;50.712;6.070;2022-12-18T06:55:26;-5.34;71.83
67748;HTU21D;54543;50.712;6.070;2022-12-18T06:57:52;-5.35;72.18
67748;HTU21D;54543;50.712;6.070;2022-12-18T07:00:18;-5.37;72.11
67748;HTU21D;54543;50.712;6.070;2022-12-18T07:02:43;-5.39;71.55
67748;HTU21D;54543;50.712;6.070;2022-12-18T07:05:09;-5.39;70.01
67748;HTU21D;54543;50.712;6.070;2022-12-18T07:07:35;-5.38;69.03
67748;HTU21D;54543;50.712;6.070;2022-12-18T07:10:00;-5.32;70.79
67748;HTU21D;54543;50.712;6.070;2022-12-18T07:12:29;-5.35;68.89
67748;HTU21D;54543;50.712;6.070;2022-12-18T07:14:55;-5.35;70.89
67748;HTU21D;54543;50.712;6.070;2022-12-18T07:17:20;-5.37;70.75
67748;HTU21D;54543;50.712;6.070;2022-12-18T07:19:46;-5.33;71.41
67748;HTU21D;54543;50.712;6.070;2022-12-18T07:22:11;-5.34;70.58
67748;HTU21D;54543;50.712;6.070;2022-12-18T07:24:37;-5.33;71.03
67748;HTU21D;54543;50.712;6.070;2022-12-18T07:27:02;-5.32;69.14
67748;HTU21D;54543;50.712;6.070;2022-12-18T07:29:28;-5.30;69.55
67748;HTU21D;54543;50.712;6.070;2022-12-18T07:31:54;-5.29;68.48
67748;HTU21D;54543;50.712;6.070;2022-12-18T07:34:19;-5.26;68.04
67748;HTU21D;54543;50.712;6.070;2022-12-18T07:36:45;-5.22;67.03
67748;HTU21D;54543;50.712;6.070;2022-12-18T07:39:11;-5.15;67.36
67748;HTU21D;54543;50.712;6.070;2022-12-18T07:41:36;-5.10;67.43
67748;HTU21D;54543;50.712;6.070;2022-12-18T07:44:02;-5.02;67.78
67748;HTU21D;54543;50.712;6.070;2022-12-18T07:46:27;-4.97;67.24
67748;HTU21D;54543;50.712;6.070;2022-12-18T07:48:53;-4.88;68.18
67748;HTU21D;54543;50.712;6.070;2022-12-18T07:51:18;-4.83;66.52
67748;HTU21D;54543;50.712;6.070;2022-12-18T07:53:44;-4.75;67.01
67748;HTU21D;54543;50.712;6.070;2022-12-18T07:56:11;-4.66;67.69
67748;HTU21D;54543;50.712;6.070;2022-12-18T07:58:37;-4.56;65.88
67748;HTU21D;54543;50.712;6.070;2022-12-18T08:01:08;-4.37;67.38
67748;HTU21D;54543;50.712;6.070;2022-12-18T08:03:34;-4.10;66.91
67748;HTU21D;54543;50.712;6.070;2022-12-18T08:06:01;-3.95;66.96
67748;HTU21D;54543;50.712;6.070;2022-12-18T08:08:27;-3.85;67.35
67748;HTU21D;54543;50.712;6.070;2022-12-18T08:10:53;-3.80;67.70
67748;HTU21D;54543;50.712;6.070;2022-12-18T08:13:19;-3.78;68.26
67748;HTU21D;54543;50.712;6.070;2022-12-18T08:15:44;-3.79;67.50
67748;HTU21D;54543;50.712;6.070;2022-12-18T08:18:10;-3.76;68.10
67748;HTU21D;54543;50.712;6.070;2022-12-18T08:20:35;-3.70;68.58
67748;HTU21D;54543;50.712;6.070;2022-12-18T08:23:01;-3.72;67.27
67748;HTU21D;54543;50.712;6.070;2022-12-18T08:25:26;-3.71;67.27
67748;HTU21D;54543;50.712;6.070;2022-12-18T08:27:52;-3.69;67.84
67748;HTU21D;54543;50.712;6.070;2022-12-18T08:30:18;-3.67;69.04
67748;HTU21D;54543;50.712;6.070;2022-12-18T08:32:43;-3.67;66.77
67748;HTU21D;54543;50.712;6.070;2022-12-18T08:35:09;-3.66;66.64
67748;HTU21D;54543;50.712;6.070;2022-12-18T08:37:36;-3.60;66.41
67748;HTU21D;54543;50.712;6.070;2022-12-18T08:40:02;-3.53;67.65
67748;HTU21D;54543;50.712;6.070;2022-12-18T08:42:28;-3.46;68.41
67748;HTU21D;54543;50.712;6.070;2022-12-18T08:45:12;-3.32;68.56
67748;HTU21D;54543;50.712;6.070;2022-12-18T08:47:37;-3.21;67.77
67748;HTU21D;54543;50.712;6.070;2022-12-18T08:50:03;-3.13;65.27
67748;HTU21D;54543;50.712;6.070;2022-12-18T08:52:31;-3.09;65.50
67748;HTU21D;54543;50.712;6.070;2022-12-18T08:54:57;-3.03;66.45
67748;HTU21D;54543;50.712;6.070;2022-12-18T08:57:22;-2.92;63.43
67748;HTU21D;54543;50.712;6.070;2022-12-18T08:59:48;-2.77;66.07
67748;HTU21D;54543;50.712;6.070;2022-12-18T09:02:13;-2.62;66.66
67748;HTU21D;54543;50.712;6.070;2022-12-18T09:04:39;-2.43;64.23
67748;HTU21D;54543;50.712;6.070;2022-12-18T09:07:05;-2.21;65.65
67748;HTU21D;54543;50.712;6.070;2022-12-18T09:09:30;-2.05;65.35
67748;HTU21D;54543;50.712;6.070;2022-12-18T09:11:56;-1.84;63.81
67748;HTU21D;54543;50.712;6.070;2022-12-18T09:14:21;-1.60;62.41
67748;HTU21D;54543;50.712;6.070;2022-12-18T09:16:47;-1.41;61.86
67748;HTU21D;54543;50.712;6.070;2022-12-18T09:19:12;-1.20;62.25
67748;HTU21D;54543;50.712;6.070;2022-12-18T09:21:38;-1.05;59.86
67748;HTU21D;54543;50.712;6.070;2022-12-18T09:24:05;-0.89;59.02
67748;HTU21D;54543;50.712;6.070;2022-12-18T09:26:30;-0.76;62.28
67748;HTU21D;54543;50.712;6.070;2022-12-18T09:28:56;-0.67;58.39
67748;HTU21D;54543;50.712;6.070;2022-12-18T09:31:23;-0.56;62.63
67748;HTU21D;54543;50.712;6.070;2022-12-18T09:33:48;-0.49;61.76
67748;HTU21D;54543;50.712;6.070;2022-12-18T09:36:16;-0.43;59.88
67748;HTU21D;54543;50.712;6.070;2022-12-18T09:38:43;-0.34;62.47
67748;HTU21D;54543;50.712;6.070;2022-12-18T09:41:45;-0.28;60.15
67748;HTU21D;54543;50.712;6.070;2022-12-18T09:44:17;-0.20;60.96
67748;HTU21D;54543;50.712;6.070;2022-12-18T09:46:47;-0.10;63.11
67748;HTU21D;54543;50.712;6.070;2022-12-18T09:49:18;-0.02;61.89
67748;HTU21D;54543;50.712;6.070;2022-12-18T09:51:49;0.07;61.68
67748;HTU21D;54543;50.712;6.070;2022-12-18T09:54:22;0.19;62.32
67748;HTU21D;54543;50.712;6.070;2022-12-18T09:56:49;0.31;63.05
67748;HTU21D;54543;50.712;6.070;2022-12-18T09:59:25;0.40;63.29
67748;HTU21D;54543;50.712;6.070;2022-12-18T10:01:51;0.47;58.90
67748;HTU21D;54543;50.712;6.070;2022-12-18T10:04:17;0.53;63.46
67748;HTU21D;54543;50.712;6.070;2022-12-18T10:06:55;0.65;62.61
67748;HTU21D;54543;50.712;6.070;2022-12-18T10:09:44;0.83;61.97
67748;HTU21D;54543;50.712;6.070;2022-12-18T10:12:29;0.99;62.23
67748;HTU21D;54543;50.712;6.070;2022-12-18T10:25:55;1.41;62.89
67748;HTU21D;54543;50.712;6.070;2022-12-18T10:28:25;1.52;63.12
67748;HTU21D;54543;50.712;6.070;2022-12-18T10:30:51;1.61;61.44
67748;HTU21D;54543;50.712;6.070;2022-12-18T10:33:20;1.76;62.27
67748;HTU21D;54543;50.712;6.070;2022-12-18T10:35:48;1.88;63.24
67748;HTU21D;54543;50.712;6.070;2022-12-18T10:43:20;2.30;56.52
67748;HTU21D;54543;50.712;6.070;2022-12-18T10:48:30;2.61;58.14
67748;HTU21D;54543;50.712;6.070;2022-12-18T10:50:56;2.75;56.91
67748;HTU21D;54543;50.712;6.070;2022-12-18T10:53:24;2.87;48.60
67748;HTU21D;54543;50.712;6.070;2022-12-18T10:55:52;3.03;45.33
67748;HTU21D;54543;50.712;6.070;2022-12-18T10:58:35;3.19;52.85
67748;HTU21D;54543;50.712;6.070;2022-12-18T11:06:05;3.41;54.51
67748;HTU21D;54543;50.712;6.070;2022-12-18T11:08:32;3.46;51.82
67748;HTU21D;54543;50.712;6.070;2022-12-18T11:10:58;3.54;54.82
67748;HTU21D;54543;50.712;6.070;2022-12-18T11:13:25;3.60;53.20
67748;HTU21D;54543;50.712;6.070;2022-12-18T11:15:51;3.62;46.70
67748;HTU21D;54543;50.712;6.070;2022-12-18T11:18:32;3.71;51.19
67748;HTU21D;54543;50.712;6.070;2022-12-18T11:21:07;3.74;46.43
67748;HTU21D;54543;50.712;6.070;2022-12-18T11:23:34;3.77;54.58
67748;HTU21D;54543;50.712;6.070;2022-12-18T11:26:04;3.80;53.10
67748;HTU21D;54543;50.712;6.070;2022-12-18T11:28:44;3.83;51.21
67748;HTU21D;54543;50.712;6.070;2022-12-18T11:31:19;3.84;42.83
67748;HTU21D;54543;50.712;6.070;2022-12-18T11:34:08;3.87;46.41
67748;HTU21D;54543;50.712;6.070;2022-12-18T11:36:45;3.88;49.01
67748;HTU21D;54543;50.712;6.070;2022-12-18T11:39:23;3.86;44.53
67748;HTU21D;54543;50.712;6.070;2022-12-18T11:42:01;3.86;48.05
67748;HTU21D;54543;50.712;6.070;2022-12-18T11:44:41;3.89;52.72
67748;HTU21D;54543;50.712;6.070;2022-12-18T11:49:41;3.88;50.69
67748;HTU21D;54543;50.712;6.070;2022-12-18T11:52:19;3.87;50.70
67748;HTU21D;54543;50.712;6.070;2022-12-18T11:54:46;3.88;51.43
67748;HTU21D;54543;50.712;6.070;2022-12-18T12:02:56;3.88;48.63
67748;HTU21D;54543;50.712;6.070;2022-12-18T12:08:18;3.86;48.28
67748;HTU21D;54543;50.712;6.070;2022-12-18T12:17:55;3.87;50.62
67748;HTU21D;54543;50.712;6.070;2022-12-18T12:20:48;3.90;46.01
67748;HTU21D;54543;50.712;6.070;2022-12-18T12:23:15;3.92;45.73
67748;HTU21D;54543;50.712;6.070;2022-12-18T12:25:56;3.94;46.27
67748;HTU21D;54543;50.712;6.070;2022-12-18T12:31:15;4.03;51.01
67748;HTU21D;54543;50.712;6.070;2022-12-18T12:36:48;4.12;49.62
67748;HTU21D;54543;50.712;6.070;2022-12-18T12:39:21;4.15;52.94
67748;HTU21D;54543;50.712;6.070;2022-12-18T12:41:48;4.19;53.14
67748;HTU21D;54543;50.712;6.070;2022-12-18T12:44:55;4.21;48.19
67748;HTU21D;54543;50.712;6.070;2022-12-18T12:47:31;4.26;53.13
67748;HTU21D;54543;50.712;6.070;2022-12-18T12:50:00;4.28;52.51
67748;HTU21D;54543;50.712;6.070;2022-12-18T12:52:37;4.31;51.43
67748;HTU21D;54543;50.712;6.070;2022-12-18T12:55:07;4.31;51.85
67748;HTU21D;54543;50.712;6.070;2022-12-18T12:57:40;4.33;53.05
67748;HTU21D;54543;50.712;6.070;2022-12-18T13:00:14;4.33;51.85
67748;HTU21D;54543;50.712;6.070;2022-12-18T13:02:55;4.37;52.15
67748;HTU21D;54543;50.712;6.070;2022-12-18T13:05:27;4.36;53.32
67748;HTU21D;54543;50.712;6.070;2022-12-18T13:08:08;4.36;49.47
67748;HTU21D;54543;50.712;6.070;2022-12-18T13:10:35;4.37;53.63
67748;HTU21D;54543;50.712;6.070;2022-12-18T13:20:40;4.38;55.00
67748;HTU21D;54543;50.712;6.070;2022-12-18T13:34:24;4.37;55.53
67748;HTU21D;54543;50.712;6.070;2022-12-18T13:36:51;4.36;54.89
67748;HTU21D;54543;50.712;6.070;2022-12-18T13:39:23;4.35;55.01
67748;HTU21D;54543;50.712;6.070;2022-12-18T13:41:52;4.33;56.54
67748;HTU21D;54543;50.712;6.070;2022-12-18T13:44:40;4.30;53.06
67748;HTU21D;54543;50.712;6.070;2022-12-18T13:47:36;4.30;55.52
67748;HTU21D;54543;50.712;6.070;2022-12-18T13:50:23;4.29;55.50
67748;HTU21D;54543;50.712;6.070;2022-12-18T13:52:51;4.28;55.56
67748;HTU21D;54543;50.712;6.070;2022-12-18T13:55:19;4.29;57.73
67748;HTU21D;54543;50.712;6.070;2022-12-18T13:57:46;4.27;56.68
67748;HTU21D;54543;50.712;6.070;2022-12-18T14:02:50;4.22;57.85
67748;HTU21D;54543;50.712;6.070;2022-12-18T14:05:28;4.21;57.40
67748;HTU21D;54543;50.712;6.070;2022-12-18T14:08:01;4.18;57.32
67748;HTU21D;54543;50.712;6.070;2022-12-18T14:10:32;4.16;57.30
67748;HTU21D;54543;50.712;6.070;2022-12-18T14:13:05;4.13;57.03
67748;HTU21D;54543;50.712;6.070;2022-12-18T14:15:34;4.12;58.21
67748;HTU21D;54543;50.712;6.070;2022-12-18T14:20:47;4.04;59.32
67748;HTU21D;54543;50.712;6.070;2022-12-18T14:23:39;4.00;57.94
67748;HTU21D;54543;50.712;6.070;2022-12-18T14:26:25;3.95;56.50
67748;HTU21D;54543;50.712;6.070;2022-12-18T14:28:54;3.92;56.81
67748;HTU21D;54543;50.712;6.070;2022-12-18T14:31:22;3.88;58.00
67748;HTU21D;54543;50.712;6.070;2022-12-18T14:33:48;3.85;57.92
67748;HTU21D;54543;50.712;6.070;2022-12-18T14:36:20;3.79;55.71
67748;HTU21D;54543;50.712;6.070;2022-12-18T14:38:52;3.74;58.18
67748;HTU21D;54543;50.712;6.070;2022-12-18T14:41:19;3.70;57.99
67748;HTU21D;54543;50.712;6.070;2022-12-18T14:43:48;3.64;58.53
67748;HTU21D;54543;50.712;6.070;2022-12-18T14:48:59;3.54;57.82
67748;HTU21D;54543;50.712;6.070;2022-12-18T14:51:30;3.49;59.16
67748;HTU21D;54543;50.712;6.070;2022-12-18T14:54:04;3.46;58.68
67748;HTU21D;54543;50.712;6.070;2022-12-18T14:56:45;3.40;56.77
67748;HTU21D;54543;50.712;6.070;2022-12-18T14:59:22;3.34;56.69
67748;HTU21D;54543;50.712;6.070;2022-12-18T15:02:41;3.30;56.78
67748;HTU21D;54543;50.712;6.070;2022-12-18T15:04:42;3.26;59.25
67748;HTU21D;54543;50.712;6.070;2022-12-18T15:07:22;3.19;56.00
67748;HTU21D;54543;50.712;6.070;2022-12-18T15:10:17;3.16;59.08
67748;HTU21D;54543;50.712;6.070;2022-12-18T15:13:15;3.10;56.95
67748;HTU21D;54543;50.712;6.070;2022-12-18T15:15:46;3.06;59.78
67748;HTU21D;54543;50.712;6.070;2022-12-18T15:18:15;3.02;60.53
67748;HTU21D;54543;50.712;6.070;2022-12-18T15:26:04;2.90;58.89
67748;HTU21D;54543;50.712;6.070;2022-12-18T15:28:50;2.84;58.39
67748;HTU21D;54543;50.712;6.070;2022-12-18T15:34:28;2.74;60.87
67748;HTU21D;54543;50.712;6.070;2022-12-18T15:36:29;2.71;60.93
67748;HTU21D;54543;50.712;6.070;2022-12-18T15:38:56;2.66;61.50
67748;HTU21D;54543;50.712;6.070;2022-12-18T15:41:22;2.61;61.36
67748;HTU21D;54543;50.712;6.070;2022-12-18T15:43:50;2.60;60.99
67748;HTU21D;54543;50.712;6.070;2022-12-18T15:48:50;2.53;60.74
67748;HTU21D;54543;50.712;6.070;2022-12-18T15:53:41;2.52;61.15
67748;HTU21D;54543;50.712;6.070;2022-12-18T15:56:11;2.51;60.84
67748;HTU21D;54543;50.712;6.070;2022-12-18T15:58:56;2.49;61.37
67748;HTU21D;54543;50.712;6.070;2022-12-18T16:01:27;2.49;61.31
67748;HTU21D;54543;50.712;6.070;2022-12-18T16:03:54;2.49;61.01
67748;HTU21D;54543;50.712;6.070;2022-12-18T16:06:21;2.46;61.13
67748;HTU21D;54543;50.712;6.070;2022-12-18T16:08:46;2.47;61.60
67748;HTU21D;54543;50.712;6.070;2022-12-18T16:11:27;2.49;61.09
67748;HTU21D;54543;50.712;6.070;2022-12-18T16:16:40;2.52;60.41
67748;HTU21D;54543;50.712;6.070;2022-12-18T16:19:06;2.54;60.76
67748;HTU21D;54543;50.712;6.070;2022-12-18T16:21:32;2.58;60.52
67748;HTU21D;54543;50.712;6.070;2022-12-18T16:23:58;2.59;60.58
67748;HTU21D;54543;50.712;6.070;2022-12-18T16:26:23;2.61;60.98
67748;HTU21D;54543;50.712;6.070;2022-12-18T16:28:48;2.64;60.89
67748;HTU21D;54543;50.712;6.070;2022-12-18T16:31:14;2.64;60.41
67748;HTU21D;54543;50.712;6.070;2022-12-18T16:33:39;2.66;60.69
67748;HTU21D;54543;50.712;6.070;2022-12-18T16:36:05;2.66;60.89
67748;HTU21D;54543;50.712;6.070;2022-12-18T16:38:31;2.68;61.15
67748;HTU21D;54543;50.712;6.070;2022-12-18T16:40:56;2.71;60.83
67748;HTU21D;54543;50.712;6.070;2022-12-18T16:43:40;2.73;61.01
67748;HTU21D;54543;50.712;6.070;2022-12-18T16:46:06;2.75;60.47
67748;HTU21D;54543;50.712;6.070;2022-12-18T16:48:31;2.76;60.46
67748;HTU21D;54543;50.712;6.070;2022-12-18T16:51:04;2.73;59.17
67748;HTU21D;54543;50.712;6.070;2022-12-18T16:53:32;2.74;60.22
67748;HTU21D;54543;50.712;6.070;2022-12-18T16:55:57;2.73;60.43
67748;HTU21D;54543;50.712;6.070;2022-12-18T16:58:23;2.72;60.06
67748;HTU21D;54543;50.712;6.070;2022-12-18T17:00:48;2.71;60.27
67748;HTU21D;54543;50.712;6.070;2022-12-18T17:03:14;2.73;60.20
67748;HTU21D;54543;50.712;6.070;2022-12-18T17:05:39;2.73;60.35
67748;HTU21D;54543;50.712;6.070;2022-12-18T17:08:05;2.73;60.43
67748;HTU21D;54543;50.712;6.070;2022-12-18T17:10:31;2.75;60.72
67748;HTU21D;54543;50.712;6.070;2022-12-18T17:12:56;2.76;60.74
67748;HTU21D;54543;50.712;6.070;2022-12-18T17:15:22;2.76;60.83
67748;HTU21D;54543;50.712;6.070;2022-12-18T17:17:47;2.76;60.49
67748;HTU21D;54543;50.712;6.070;2022-12-18T17:20:13;2.79;60.18
67748;HTU21D;54543;50.712;6.070;2022-12-18T17:22:39;2.80;59.16
67748;HTU21D;54543;50.712;6.070;2022-12-18T17:25:04;2.80;58.55
67748;HTU21D;54543;50.712;6.070;2022-12-18T17:27:30;2.81;59.16
67748;HTU21D;54543;50.712;6.070;2022-12-18T17:29:56;2.81;58.22